sensor_id;sensor_type;location;lat;lon;timestamp;temperature;humidity
36444;DHT22;24692;45.642;13.806;2023-04-01T00:00:19;11.00;99.90
36444;DHT22;24692;45.642;13.806;2023-04-01T00:02:44;11.10;99.90
36444;DHT22;24692;45.642;13.806;2023-04-01T00:05:11;11.20;99.90
36444;DHT22;24692;45.642;13.806;2023-04-01T00:07:38;11.10;99.90
36444;DHT22;24692;45.642;13.806;2023-04-01T00:10:09;11.10;99.90
36444;DHT22;24692;45.642;13.806;2023-04-01T00:12:36;11.10;99.90
36444;DHT22;24692;45.642;13.806;2023-04-01T00:15:02;11.00;99.90
36444;DHT22;24692;45.642;13.806;2023-04-01T00:17:28;11.00;99.90
36444;DHT22;24692;45.642;13.806;2023-04-01T00:19:57;11.00;99.90
36444;DHT22;24692;45.642;13.806;2023-04-01T00:22:23;11.00;99.90
36444;DHT22;24692;45.642;13.806;2023-04-01T00:24:50;11.00;99.90
36444;DHT22;24692;45.642;13.806;2023-04-01T00:27:16;10.90;99.90
36444;DHT22;24692;45.642;13.806;2023-04-01T00:29:43;10.90;99.90
36444;DHT22;24692;45.642;13.806;2023-04-01T00:32:09;10.90;99.90
36444;DHT22;24692;45.642;13.806;2023-04-01T00:34:35;10.90;99.90
36444;DHT22;24692;45.642;13.806;2023-04-01T00:37:00;10.80;99.90
36444;DHT22;24692;45.642;13.806;2023-04-01T00:39:31;10.80;99.90
36444;DHT22;24692;45.642;13.806;2023-04-01T00:41:58;10.80;99.90
36444;DHT22;24692;45.642;13.806;2023-04-01T00:44:28;10.80;99.90
36444;DHT22;24692;45.642;13.806;2023-04-01T00:46:54;10.80;99.90
36444;DHT22;24692;45.642;13.806;2023-04-01T00:49:22;10.80;99.90
36444;DHT22;24692;45.642;13.806;2023-04-01T00:51:52;10.80;99.90
36444;DHT22;24692;45.642;13.806;2023-04-01T00:54:19;10.80;99.90
36444;DHT22;24692;45.642;13.806;2023-04-01T00:56:49;10.80;99.90
36444;DHT22;24692;45.642;13.806;2023-04-01T00:59:23;10.80;99.90
36444;DHT22;24692;45.642;13.806;2023-04-01T01:01:49;10.90;99.90
36444;DHT22;24692;45.642;13.806;2023-04-01T01:04:27;10.90;99.90
36444;DHT22;24692;45.642;13.806;2023-04-01T01:06:58;11.00;99.90
36444;DHT22;24692;45.642;13.806;2023-04-01T01:12:12;11.00;99.90
36444;DHT22;24692;45.642;13.806;2023-04-01T01:23:53;11.10;99.90
36444;DHT22;24692;45.642;13.806;2023-04-01T01:37:10;11.30;99.90
36444;DHT22;24692;45.642;13.806;2023-04-01T01:39:37;11.30;99.90
36444;DHT22;24692;45.642;13.806;2023-04-01T01:42:06;11.30;99.90
36444;DHT22;24692;45.642;13.806;2023-04-01T01:44:33;11.30;99.90
36444;DHT22;24692;45.642;13.806;2023-04-01T01:47:00;11.30;99.90
36444;DHT22;24692;45.642;13.806;2023-04-01T01:49:27;11.30;99.90
36444;DHT22;24692;45.642;13.806;2023-04-01T01:51:56;11.30;99.90
36444;DHT22;24692;45.642;13.806;2023-04-01T01:54:22;11.30;99.90
36444;DHT22;24692;45.642;13.806;2023-04-01T01:56:50;11.30;99.90
36444;DHT22;24692;45.642;13.806;2023-04-01T01:59:20;11.30;99.90
36444;DHT22;24692;45.642;13.806;2023-04-01T02:01:50;11.30;99.90
36444;DHT22;24692;45.642;13.806;2023-04-01T02:04:17;11.40;99.90
36444;DHT22;24692;45.642;13.806;2023-04-01T02:06:53;11.30;99.90
36444;DHT22;24692;45.642;13.806;2023-04-01T02:09:21;11.30;99.90
36444;DHT22;24692;45.642;13.806;2023-04-01T02:11:52;11.40;99.90
36444;DHT22;24692;45.642;13.806;2023-04-01T02:14:26;11.40;99.90
36444;DHT22;24692;45.642;13.806;2023-04-01T02:17:07;11.40;99.90
36444;DHT22;24692;45.642;13.806;2023-04-01T02:19:46;11.50;99.90
36444;DHT22;24692;45.642;13.806;2023-04-01T02:22:16;11.40;99.90
36444;DHT22;24692;45.642;13.806;2023-04-01T02:24:42;11.40;99.90
36444;DHT22;24692;45.642;13.806;2023-04-01T02:27:12;11.40;99.90
36444;DHT22;24692;45.642;13.806;2023-04-01T02:29:38;11.40;99.90
36444;DHT22;24692;45.642;13.806;2023-04-01T02:32:05;11.40;99.90
36444;DHT22;24692;45.642;13.806;2023-04-01T02:34:31;11.40;99.90
36444;DHT22;24692;45.642;13.806;2023-04-01T02:36:58;11.40;99.90
36444;DHT22;24692;45.642;13.806;2023-04-01T02:39:23;11.40;99.90
36444;DHT22;24692;45.642;13.806;2023-04-01T02:41:51;11.40;99.90
36444;DHT22;24692;45.642;13.806;2023-04-01T02:44:19;11.50;99.90
36444;DHT22;24692;45.642;13.806;2023-04-01T02:46:45;11.50;99.90
36444;DHT22;24692;45.642;13.806;2023-04-01T02:49:11;11.50;99.90
36444;DHT22;24692;45.642;13.806;2023-04-01T02:51:38;11.50;99.90
36444;DHT22;24692;45.642;13.806;2023-04-01T02:54:09;11.40;99.90
36444;DHT22;24692;45.642;13.806;2023-04-01T02:56:36;11.50;99.90
36444;DHT22;24692;45.642;13.806;2023-04-01T02:59:02;11.50;99.90
36444;DHT22;24692;45.642;13.806;2023-04-01T03:01:29;11.50;99.90
36444;DHT22;24692;45.642;13.806;2023-04-01T03:03:56;11.50;99.90
36444;DHT22;24692;45.642;13.806;2023-04-01T03:06:22;11.40;99.90
36444;DHT22;24692;45.642;13.806;2023-04-01T03:08:51;11.40;99.90
36444;DHT22;24692;45.642;13.806;2023-04-01T03:11:18;11.40;99.90
36444;DHT22;24692;45.642;13.806;2023-04-01T03:13:47;11.40;99.90
36444;DHT22;24692;45.642;13.806;2023-04-01T03:16:14;11.40;99.90
36444;DHT22;24692;45.642;13.806;2023-04-01T03:18:40;11.40;99.90
36444;DHT22;24692;45.642;13.806;2023-04-01T03:21:20;11.40;99.90
36444;DHT22;24692;45.642;13.806;2023-04-01T03:23:46;11.40;99.90
36444;DHT22;24692;45.642;13.806;2023-04-01T03:26:12;11.40;99.90
36444;DHT22;24692;45.642;13.806;2023-04-01T03:28:39;11.40;99.90
36444;DHT22;24692;45.642;13.806;2023-04-01T03:31:05;11.40;99.90
36444;DHT22;24692;45.642;13.806;2023-04-01T03:33:31;11.40;99.90
36444;DHT22;24692;45.642;13.806;2023-04-01T03:35:56;11.50;99.90
36444;DHT22;24692;45.642;13.806;2023-04-01T03:38:22;11.50;99.90
36444;DHT22;24692;45.642;13.806;2023-04-01T03:40:48;11.40;99.90
36444;DHT22;24692;45.642;13.806;2023-04-01T03:43:13;11.40;99.90
36444;DHT22;24692;45.642;13.806;2023-04-01T03:45:49;11.40;99.90
36444;DHT22;24692;45.642;13.806;2023-04-01T03:48:15;11.40;99.90
36444;DHT22;24692;45.642;13.806;2023-04-01T03:50:41;11.30;99.90
36444;DHT22;24692;45.642;13.806;2023-04-01T03:53:07;11.30;99.90
36444;DHT22;24692;45.642;13.806;2023-04-01T03:55:35;11.20;99.90
36444;DHT22;24692;45.642;13.806;2023-04-01T03:58:00;11.00;99.90
36444;DHT22;24692;45.642;13.806;2023-04-01T04:00:28;10.90;99.90
36444;DHT22;24692;45.642;13.806;2023-04-01T04:02:55;10.80;99.90
36444;DHT22;24692;45.642;13.806;2023-04-01T04:05:22;10.60;99.90
36444;DHT22;24692;45.642;13.806;2023-04-01T04:07:48;10.70;99.90
36444;DHT22;24692;45.642;13.806;2023-04-01T04:10:14;10.50;99.90
36444;DHT22;24692;45.642;13.806;2023-04-01T04:12:40;10.50;99.90
36444;DHT22;24692;45.642;13.806;2023-04-01T04:15:07;10.30;99.90
36444;DHT22;24692;45.642;13.806;2023-04-01T04:17:33;10.30;99.90
36444;DHT22;24692;45.642;13.806;2023-04-01T04:19:59;10.20;99.90
36444;DHT22;24692;45.642;13.806;2023-04-01T04:22:24;10.20;99.90
36444;DHT22;24692;45.642;13.806;2023-04-01T04:24:50;10.00;99.90
36444;DHT22;24692;45.642;13.806;2023-04-01T04:27:16;10.00;99.90
36444;DHT22;24692;45.642;13.806;2023-04-01T04:29:41;10.10;99.90
36444;DHT22;24692;45.642;13.806;2023-04-01T04:32:07;10.00;99.90
36444;DHT22;24692;45.642;13.806;2023-04-01T04:34:33;9.90;99.90
36444;DHT22;24692;45.642;13.806;2023-04-01T04:36:58;9.90;99.90
36444;DHT22;24692;45.642;13.806;2023-04-01T04:39:24;9.80;99.90
36444;DHT22;24692;45.642;13.806;2023-04-01T04:41:50;9.80;99.90
36444;DHT22;24692;45.642;13.806;2023-04-01T04:44:16;9.70;99.90
36444;DHT22;24692;45.642;13.806;2023-04-01T04:46:41;9.70;99.90
36444;DHT22;24692;45.642;13.806;2023-04-01T04:49:07;9.60;99.90
36444;DHT22;24692;45.642;13.806;2023-04-01T04:51:33;9.60;99.90
36444;DHT22;24692;45.642;13.806;2023-04-01T04:54:01;9.60;99.90
36444;DHT22;24692;45.642;13.806;2023-04-01T04:56:27;9.60;99.90
36444;DHT22;24692;45.642;13.806;2023-04-01T04:58:53;9.70;99.90
36444;DHT22;24692;45.642;13.806;2023-04-01T05:01:19;9.70;99.90
36444;DHT22;24692;45.642;13.806;2023-04-01T05:03:45;9.70;99.90
36444;DHT22;24692;45.642;13.806;2023-04-01T05:06:13;9.70;99.90
36444;DHT22;24692;45.642;13.806;2023-04-01T05:08:40;9.80;99.90
36444;DHT22;24692;45.642;13.806;2023-04-01T05:11:09;9.70;99.90
36444;DHT22;24692;45.642;13.806;2023-04-01T05:13:38;9.70;99.90
36444;DHT22;24692;45.642;13.806;2023-04-01T05:16:07;9.60;99.90
36444;DHT22;24692;45.642;13.806;2023-04-01T05:18:32;9.70;99.90
36444;DHT22;24692;45.642;13.806;2023-04-01T05:20:58;9.80;99.90
36444;DHT22;24692;45.642;13.806;2023-04-01T05:23:24;9.90;99.90
36444;DHT22;24692;45.642;13.806;2023-04-01T05:25:50;9.90;99.90
36444;DHT22;24692;45.642;13.806;2023-04-01T05:28:19;9.80;99.90
36444;DHT22;24692;45.642;13.806;2023-04-01T05:30:45;9.70;99.90
36444;DHT22;24692;45.642;13.806;2023-04-01T05:33:12;9.70;99.90
36444;DHT22;24692;45.642;13.806;2023-04-01T05:35:38;9.70;99.90
36444;DHT22;24692;45.642;13.806;2023-04-01T05:38:04;9.70;99.90
36444;DHT22;24692;45.642;13.806;2023-04-01T05:40:30;9.80;99.90
36444;DHT22;24692;45.642;13.806;2023-04-01T05:42:57;9.80;99.90
36444;DHT22;24692;45.642;13.806;2023-04-01T05:45:22;10.00;99.90
36444;DHT22;24692;45.642;13.806;2023-04-01T05:47:48;10.20;99.90
36444;DHT22;24692;45.642;13.806;2023-04-01T05:50:14;10.30;99.90
36444;DHT22;24692;45.642;13.806;2023-04-01T05:52:40;10.30;99.90
36444;DHT22;24692;45.642;13.806;2023-04-01T05:55:06;10.40;99.90
36444;DHT22;24692;45.642;13.806;2023-04-01T05:57:32;10.50;99.90
36444;DHT22;24692;45.642;13.806;2023-04-01T05:59:58;10.50;99.90
36444;DHT22;24692;45.642;13.806;2023-04-01T06:02:23;10.60;99.90
36444;DHT22;24692;45.642;13.806;2023-04-01T06:04:49;10.80;99.90
36444;DHT22;24692;45.642;13.806;2023-04-01T06:07:20;10.90;99.90
36444;DHT22;24692;45.642;13.806;2023-04-01T06:09:45;11.10;99.90
36444;DHT22;24692;45.642;13.806;2023-04-01T06:15:11;11.40;99.90
36444;DHT22;24692;45.642;13.806;2023-04-01T06:23:48;11.80;99.90
36444;DHT22;24692;45.642;13.806;2023-04-01T06:26:19;11.80;99.90
36444;DHT22;24692;45.642;13.806;2023-04-01T06:39:40;12.60;99.90
36444;DHT22;24692;45.642;13.806;2023-04-01T06:45:44;12.60;99.90
36444;DHT22;24692;45.642;13.806;2023-04-01T06:53:25;12.60;99.90
36444;DHT22;24692;45.642;13.806;2023-04-01T06:56:04;12.50;99.90
36444;DHT22;24692;45.642;13.806;2023-04-01T06:58:42;12.50;99.90
36444;DHT22;24692;45.642;13.806;2023-04-01T07:01:18;12.70;99.90
36444;DHT22;24692;45.642;13.806;2023-04-01T07:03:52;12.90;99.90
36444;DHT22;24692;45.642;13.806;2023-04-01T07:06:35;13.10;99.90
36444;DHT22;24692;45.642;13.806;2023-04-01T07:09:05;13.30;99.90
36444;DHT22;24692;45.642;13.806;2023-04-01T07:11:34;13.20;99.90
36444;DHT22;24692;45.642;13.806;2023-04-01T07:14:20;13.20;99.90
36444;DHT22;24692;45.642;13.806;2023-04-01T07:17:02;12.90;99.90
36444;DHT22;24692;45.642;13.806;2023-04-01T07:19:39;12.80;99.90
36444;DHT22;24692;45.642;13.806;2023-04-01T07:24:48;14.30;99.90
36444;DHT22;24692;45.642;13.806;2023-04-01T07:27:14;15.90;99.90
36444;DHT22;24692;45.642;13.806;2023-04-01T07:29:40;17.70;99.90
36444;DHT22;24692;45.642;13.806;2023-04-01T07:40:28;24.10;99.90
36444;DHT22;24692;45.642;13.806;2023-04-01T07:48:45;24.50;99.90
36444;DHT22;24692;45.642;13.806;2023-04-01T07:54:06;22.20;99.90
36444;DHT22;24692;45.642;13.806;2023-04-01T07:56:47;22.20;99.90
36444;DHT22;24692;45.642;13.806;2023-04-01T07:59:23;22.20;99.90
36444;DHT22;24692;45.642;13.806;2023-04-01T08:04:46;23.60;99.90
36444;DHT22;24692;45.642;13.806;2023-04-01T08:07:18;25.40;99.90
36444;DHT22;24692;45.642;13.806;2023-04-01T08:10:11;27.00;99.90
36444;DHT22;24692;45.642;13.806;2023-04-01T08:15:27;25.20;99.90
36444;DHT22;24692;45.642;13.806;2023-04-01T08:21:23;23.60;99.90
36444;DHT22;24692;45.642;13.806;2023-04-01T08:23:52;23.70;99.90
36444;DHT22;24692;45.642;13.806;2023-04-01T08:26:29;22.80;99.90
36444;DHT22;24692;45.642;13.806;2023-04-01T08:29:10;21.70;99.90
36444;DHT22;24692;45.642;13.806;2023-04-01T08:31:57;21.40;99.90
36444;DHT22;24692;45.642;13.806;2023-04-01T08:34:45;20.70;99.90
36444;DHT22;24692;45.642;13.806;2023-04-01T08:37:19;20.10;99.90
36444;DHT22;24692;45.642;13.806;2023-04-01T08:39:48;18.90;99.90
36444;DHT22;24692;45.642;13.806;2023-04-01T08:53:34;17.20;99.90
36444;DHT22;24692;45.642;13.806;2023-04-01T08:56:14;17.20;99.90
36444;DHT22;24692;45.642;13.806;2023-04-01T09:01:26;17.00;99.90
36444;DHT22;24692;45.642;13.806;2023-04-01T09:40:09;23.20;99.90
36444;DHT22;24692;45.642;13.806;2023-04-01T09:56:14;22.80;99.90
36444;DHT22;24692;45.642;13.806;2023-04-01T09:59:05;23.10;99.90
36444;DHT22;24692;45.642;13.806;2023-04-01T10:04:49;24.40;99.90
36444;DHT22;24692;45.642;13.806;2023-04-01T10:22:17;25.60;99.90
36444;DHT22;24692;45.642;13.806;2023-04-01T10:33:17;22.60;99.90
36444;DHT22;24692;45.642;13.806;2023-04-01T10:50:49;23.20;99.90
36444;DHT22;24692;45.642;13.806;2023-04-01T11:24:46;23.70;99.90
36444;DHT22;24692;45.642;13.806;2023-04-01T11:30:06;24.70;99.90
36444;DHT22;24692;45.642;13.806;2023-04-01T11:33:00;24.10;99.90
36444;DHT22;24692;45.642;13.806;2023-04-01T11:41:51;24.60;99.90
36444;DHT22;24692;45.642;13.806;2023-04-01T11:44:24;25.70;99.90
36444;DHT22;24692;45.642;13.806;2023-04-01T11:49:42;25.20;99.90
36444;DHT22;24692;45.642;13.806;2023-04-01T12:00:22;24.00;99.90
36444;DHT22;24692;45.642;13.806;2023-04-01T12:14:05;22.90;99.90
36444;DHT22;24692;45.642;13.806;2023-04-01T12:19:39;24.90;99.90
36444;DHT22;24692;45.642;13.806;2023-04-01T12:22:59;24.80;99.90
36444;DHT22;24692;45.642;13.806;2023-04-01T12:27:50;25.40;99.90
36444;DHT22;24692;45.642;13.806;2023-04-01T12:35:51;24.90;99.90
36444;DHT22;24692;45.642;13.806;2023-04-01T12:55:48;24.60;99.90
36444;DHT22;24692;45.642;13.806;2023-04-01T13:01:34;23.60;99.90
36444;DHT22;24692;45.642;13.806;2023-04-01T13:04:22;23.80;99.90
36444;DHT22;24692;45.642;13.806;2023-04-01T13:07:11;23.60;99.90
36444;DHT22;24692;45.642;13.806;2023-04-01T13:28:28;23.40;99.90
36444;DHT22;24692;45.642;13.806;2023-04-01T13:31:04;22.70;99.90
36444;DHT22;24692;45.642;13.806;2023-04-01T13:33:38;22.80;99.90
36444;DHT22;24692;45.642;13.806;2023-04-01T13:36:28;23.00;99.90
36444;DHT22;24692;45.642;13.806;2023-04-01T13:41:44;21.70;99.90
36444;DHT22;24692;45.642;13.806;2023-04-01T13:44:30;21.20;99.90
36444;DHT22;24692;45.642;13.806;2023-04-01T13:53:16;22.40;99.90
36444;DHT22;24692;45.642;13.806;2023-04-01T13:58:53;22.50;99.90
36444;DHT22;24692;45.642;13.806;2023-04-01T14:12:59;22.20;99.90
36444;DHT22;24692;45.642;13.806;2023-04-01T14:15:58;21.50;99.90
36444;DHT22;24692;45.642;13.806;2023-04-01T14:23:51;24.10;99.90
36444;DHT22;24692;45.642;13.806;2023-04-01T14:33:03;23.50;99.90
36444;DHT22;24692;45.642;13.806;2023-04-01T14:35:37;23.90;99.90
36444;DHT22;24692;45.642;13.806;2023-04-01T14:38:46;24.10;99.90
36444;DHT22;24692;45.642;13.806;2023-04-01T14:41:00;24.30;99.90
36444;DHT22;24692;45.642;13.806;2023-04-01T14:44:00;23.20;99.90
36444;DHT22;24692;45.642;13.806;2023-04-01T14:49:40;22.80;99.90
36444;DHT22;24692;45.642;13.806;2023-04-01T14:52:32;23.40;99.90
36444;DHT22;24692;45.642;13.806;2023-04-01T14:55:15;23.40;99.90
36444;DHT22;24692;45.642;13.806;2023-04-01T14:58:19;21.70;99.90
36444;DHT22;24692;45.642;13.806;2023-04-01T15:03:33;19.80;99.90
36444;DHT22;24692;45.642;13.806;2023-04-01T15:06:47;19.40;99.90
36444;DHT22;24692;45.642;13.806;2023-04-01T15:09:38;19.20;99.90
36444;DHT22;24692;45.642;13.806;2023-04-01T15:23:02;18.90;99.90
36444;DHT22;24692;45.642;13.806;2023-04-01T15:31:42;19.20;99.90
36444;DHT22;24692;45.642;13.806;2023-04-01T15:37:08;19.40;99.90
36444;DHT22;24692;45.642;13.806;2023-04-01T15:42:24;18.70;99.90
36444;DHT22;24692;45.642;13.806;2023-04-01T15:47:35;19.60;99.90
36444;DHT22;24692;45.642;13.806;2023-04-01T15:53:36;19.90;99.90
36444;DHT22;24692;45.642;13.806;2023-04-01T16:01:46;19.80;99.90
36444;DHT22;24692;45.642;13.806;2023-04-01T16:18:22;19.20;99.90
36444;DHT22;24692;45.642;13.806;2023-04-01T16:21:11;19.30;99.90
36444;DHT22;24692;45.642;13.806;2023-04-01T16:23:58;19.40;99.90
36444;DHT22;24692;45.642;13.806;2023-04-01T16:35:43;18.70;99.90
36444;DHT22;24692;45.642;13.806;2023-04-01T16:41:19;19.20;99.90
36444;DHT22;24692;45.642;13.806;2023-04-01T16:43:52;19.40;99.90
36444;DHT22;24692;45.642;13.806;2023-04-01T16:49:22;19.30;99.90
36444;DHT22;24692;45.642;13.806;2023-04-01T16:54:56;19.00;99.90
36444;DHT22;24692;45.642;13.806;2023-04-01T17:00:55;18.40;99.90
36444;DHT22;24692;45.642;13.806;2023-04-01T17:08:43;17.50;99.90
36444;DHT22;24692;45.642;13.806;2023-04-01T17:11:19;17.10;99.90
36444;DHT22;24692;45.642;13.806;2023-04-01T17:30:37;15.00;99.90
36444;DHT22;24692;45.642;13.806;2023-04-01T17:36:18;15.10;99.90
36444;DHT22;24692;45.642;13.806;2023-04-01T17:44:49;14.90;99.90
36444;DHT22;24692;45.642;13.806;2023-04-01T17:47:27;14.90;99.90
36444;DHT22;24692;45.642;13.806;2023-04-01T18:01:01;14.50;99.90
36444;DHT22;24692;45.642;13.806;2023-04-01T18:06:21;14.40;99.90
36444;DHT22;24692;45.642;13.806;2023-04-01T18:23:51;14.00;99.90
36444;DHT22;24692;45.642;13.806;2023-04-01T18:26:31;13.90;99.90
36444;DHT22;24692;45.642;13.806;2023-04-01T18:29:04;13.80;99.90
36444;DHT22;24692;45.642;13.806;2023-04-01T18:31:40;13.70;99.90
36444;DHT22;24692;45.642;13.806;2023-04-01T18:37:22;13.70;99.90
36444;DHT22;24692;45.642;13.806;2023-04-01T18:40:27;13.70;99.90
36444;DHT22;24692;45.642;13.806;2023-04-01T18:43:34;13.50;99.90
36444;DHT22;24692;45.642;13.806;2023-04-01T18:49:21;13.30;99.90
36444;DHT22;24692;45.642;13.806;2023-04-01T18:57:48;13.50;99.90
36444;DHT22;24692;45.642;13.806;2023-04-01T19:00:21;13.50;99.90
36444;DHT22;24692;45.642;13.806;2023-04-01T19:02:54;13.40;99.90
36444;DHT22;24692;45.642;13.806;2023-04-01T19:05:33;13.40;99.90
36444;DHT22;24692;45.642;13.806;2023-04-01T19:19:11;13.40;99.90
36444;DHT22;24692;45.642;13.806;2023-04-01T19:21:53;13.50;99.90
36444;DHT22;24692;45.642;13.806;2023-04-01T19:27:08;13.50;99.90
36444;DHT22;24692;45.642;13.806;2023-04-01T19:38:37;13.20;99.90
36444;DHT22;24692;45.642;13.806;2023-04-01T19:41:29;13.20;99.90
36444;DHT22;24692;45.642;13.806;2023-04-01T19:44:21;13.20;99.90
36444;DHT22;24692;45.642;13.806;2023-04-01T19:46:53;13.10;99.90
36444;DHT22;24692;45.642;13.806;2023-04-01T19:49:27;13.10;99.90
36444;DHT22;24692;45.642;13.806;2023-04-01T19:52:23;13.10;99.90
36444;DHT22;24692;45.642;13.806;2023-04-01T19:57:55;13.10;99.90
36444;DHT22;24692;45.642;13.806;2023-04-01T20:00:41;13.20;99.90
36444;DHT22;24692;45.642;13.806;2023-04-01T20:03:35;13.20;99.90
36444;DHT22;24692;45.642;13.806;2023-04-01T20:06:10;13.10;99.90
36444;DHT22;24692;45.642;13.806;2023-04-01T20:17:15;12.80;99.90
36444;DHT22;24692;45.642;13.806;2023-04-01T20:44:12;12.60;99.90
36444;DHT22;24692;45.642;13.806;2023-04-01T20:52:32;12.60;99.90
36444;DHT22;24692;45.642;13.806;2023-04-01T20:58:03;12.50;99.90
36444;DHT22;24692;45.642;13.806;2023-04-01T21:00:58;12.40;99.90
36444;DHT22;24692;45.642;13.806;2023-04-01T21:12:23;12.20;99.90
36444;DHT22;24692;45.642;13.806;2023-04-01T21:20:20;12.10;99.90
36444;DHT22;24692;45.642;13.806;2023-04-01T21:28:40;11.80;99.90
36444;DHT22;24692;45.642;13.806;2023-04-01T21:31:12;11.90;99.90
36444;DHT22;24692;45.642;13.806;2023-04-01T21:36:40;11.80;99.90
36444;DHT22;24692;45.642;13.806;2023-04-01T22:01:29;11.60;99.90
36444;DHT22;24692;45.642;13.806;2023-04-01T22:07:47;11.50;99.90
36444;DHT22;24692;45.642;13.806;2023-04-01T22:13:09;11.60;99.90
36444;DHT22;24692;45.642;13.806;2023-04-01T22:18:43;11.60;99.90
36444;DHT22;24692;45.642;13.806;2023-04-01T22:24:06;11.50;99.90
36444;DHT22;24692;45.642;13.806;2023-04-01T22:26:46;11.60;99.90
36444;DHT22;24692;45.642;13.806;2023-04-01T22:29:23;11.60;99.90
36444;DHT22;24692;45.642;13.806;2023-04-01T22:31:58;11.50;99.90
36444;DHT22;24692;45.642;13.806;2023-04-01T22:35:06;11.40;99.90
36444;DHT22;24692;45.642;13.806;2023-04-01T22:40:42;11.40;99.90
36444;DHT22;24692;45.642;13.806;2023-04-01T22:46:22;11.40;99.90
36444;DHT22;24692;45.642;13.806;2023-04-01T22:49:07;11.30;99.90
36444;DHT22;24692;45.642;13.806;2023-04-01T22:51:50;11.40;99.90
36444;DHT22;24692;45.642;13.806;2023-04-01T22:59:54;11.40;99.90
36444;DHT22;24692;45.642;13.806;2023-04-01T23:02:32;11.40;99.90
36444;DHT22;24692;45.642;13.806;2023-04-01T23:05:02;11.40;99.90
36444;DHT22;24692;45.642;13.806;2023-04-01T23:10:14;11.40;99.90
36444;DHT22;24692;45.642;13.806;2023-04-01T23:12:40;11.40;99.90
36444;DHT22;24692;45.642;13.806;2023-04-01T23:15:12;11.40;99.90
36444;DHT22;24692;45.642;13.806;2023-04-01T23:17:47;11.30;99.90
36444;DHT22;24692;45.642;13.806;2023-04-01T23:26:23;11.30;99.90
36444;DHT22;24692;45.642;13.806;2023-04-01T23:28:55;11.40;99.90
36444;DHT22;24692;45.642;13.806;2023-04-01T23:34:04;11.50;99.90
36444;DHT22;24692;45.642;13.806;2023-04-01T23:36:38;11.50;99.90
36444;DHT22;24692;45.642;13.806;2023-04-01T23:39:21;11.50;99.90
36444;DHT22;24692;45.642;13.806;2023-04-01T23:41:48;11.50;99.90
36444;DHT22;24692;45.642;13.806;2023-04-01T23:44:14;11.40;99.90
36444;DHT22;24692;45.642;13.806;2023-04-01T23:46:42;11.40;99.90
36444;DHT22;24692;45.642;13.806;2023-04-01T23:49:35;11.40;99.90
36444;DHT22;24692;45.642;13.806;2023-04-01T23:54:54;11.40;99.90
36444;DHT22;24692;45.642;13.806;2023-04-01T23:57:28;11.50;99.90
